sensor_id;sensor_type;location;lat;lon;timestamp;temperature;humidity
1812;DHT22;904;47.814;11.134;2024-02-23T00:01:20;9.80;78.30
1812;DHT22;904;47.814;11.134;2024-02-23T00:03:47;9.80;79.20
1812;DHT22;904;47.814;11.134;2024-02-23T00:06:14;9.70;78.70
1812;DHT22;904;47.814;11.134;2024-02-23T00:08:41;9.70;78.30
1812;DHT22;904;47.814;11.134;2024-02-23T00:11:08;9.70;76.70
1812;DHT22;904;47.814;11.134;2024-02-23T00:13:35;9.60;76.90
1812;DHT22;904;47.814;11.134;2024-02-23T00:16:02;9.60;77.00
1812;DHT22;904;47.814;11.134;2024-02-23T00:18:31;9.60;75.20
1812;DHT22;904;47.814;11.134;2024-02-23T00:20:58;9.60;75.10
1812;DHT22;904;47.814;11.134;2024-02-23T00:23:25;9.50;75.70
1812;DHT22;904;47.814;11.134;2024-02-23T00:25:54;9.40;75.60
1812;DHT22;904;47.814;11.134;2024-02-23T00:28:21;9.40;75.20
1812;DHT22;904;47.814;11.134;2024-02-23T00:30:48;9.40;75.60
1812;DHT22;904;47.814;11.134;2024-02-23T00:33:15;9.30;75.70
1812;DHT22;904;47.814;11.134;2024-02-23T00:35:44;9.30;75.90
1812;DHT22;904;47.814;11.134;2024-02-23T00:38:11;9.20;75.90
1812;DHT22;904;47.814;11.134;2024-02-23T00:40:38;9.20;75.50
1812;DHT22;904;47.814;11.134;2024-02-23T00:43:05;9.20;75.50
1812;DHT22;904;47.814;11.134;2024-02-23T00:45:32;9.20;75.60
1812;DHT22;904;47.814;11.134;2024-02-23T00:47:59;9.20;76.30
1812;DHT22;904;47.814;11.134;2024-02-23T00:50:27;9.20;76.50
1812;DHT22;904;47.814;11.134;2024-02-23T00:52:55;9.10;77.50
1812;DHT22;904;47.814;11.134;2024-02-23T00:55:22;9.10;77.80
1812;DHT22;904;47.814;11.134;2024-02-23T00:57:50;9.10;76.80
1812;DHT22;904;47.814;11.134;2024-02-23T01:00:18;9.20;77.00
1812;DHT22;904;47.814;11.134;2024-02-23T01:02:45;9.20;77.40
1812;DHT22;904;47.814;11.134;2024-02-23T01:05:12;9.20;76.40
1812;DHT22;904;47.814;11.134;2024-02-23T01:07:39;9.20;76.80
1812;DHT22;904;47.814;11.134;2024-02-23T01:10:08;9.20;75.80
1812;DHT22;904;47.814;11.134;2024-02-23T01:12:35;9.20;76.00
1812;DHT22;904;47.814;11.134;2024-02-23T01:15:03;9.20;75.80
1812;DHT22;904;47.814;11.134;2024-02-23T01:17:30;9.20;75.20
1812;DHT22;904;47.814;11.134;2024-02-23T01:19:57;9.20;75.30
1812;DHT22;904;47.814;11.134;2024-02-23T01:22:24;9.10;74.40
1812;DHT22;904;47.814;11.134;2024-02-23T01:24:51;9.10;74.80
1812;DHT22;904;47.814;11.134;2024-02-23T01:27:20;9.10;73.60
1812;DHT22;904;47.814;11.134;2024-02-23T01:29:48;9.00;73.90
1812;DHT22;904;47.814;11.134;2024-02-23T01:32:15;9.00;73.70
1812;DHT22;904;47.814;11.134;2024-02-23T01:34:42;9.00;74.60
1812;DHT22;904;47.814;11.134;2024-02-23T01:37:09;9.00;74.10
1812;DHT22;904;47.814;11.134;2024-02-23T01:39:37;9.00;73.60
1812;DHT22;904;47.814;11.134;2024-02-23T01:42:04;9.10;72.70
1812;DHT22;904;47.814;11.134;2024-02-23T01:44:33;9.10;72.50
1812;DHT22;904;47.814;11.134;2024-02-23T01:47:00;9.10;72.20
1812;DHT22;904;47.814;11.134;2024-02-23T01:49:29;9.10;71.90
1812;DHT22;904;47.814;11.134;2024-02-23T01:51:58;9.10;71.10
1812;DHT22;904;47.814;11.134;2024-02-23T01:54:25;9.10;70.80
1812;DHT22;904;47.814;11.134;2024-02-23T01:56:54;9.10;69.70
1812;DHT22;904;47.814;11.134;2024-02-23T01:59:23;9.10;69.20
1812;DHT22;904;47.814;11.134;2024-02-23T02:01:55;9.10;68.00
1812;DHT22;904;47.814;11.134;2024-02-23T02:04:22;9.10;68.00
1812;DHT22;904;47.814;11.134;2024-02-23T02:06:49;9.10;67.50
1812;DHT22;904;47.814;11.134;2024-02-23T02:09:16;9.10;67.60
1812;DHT22;904;47.814;11.134;2024-02-23T02:11:46;9.10;67.30
1812;DHT22;904;47.814;11.134;2024-02-23T02:14:18;9.10;67.30
1812;DHT22;904;47.814;11.134;2024-02-23T02:16:45;9.10;65.80
1812;DHT22;904;47.814;11.134;2024-02-23T02:19:17;9.10;65.60
1812;DHT22;904;47.814;11.134;2024-02-23T02:21:44;9.10;64.50
1812;DHT22;904;47.814;11.134;2024-02-23T02:24:11;9.00;64.20
1812;DHT22;904;47.814;11.134;2024-02-23T02:26:38;9.00;64.20
1812;DHT22;904;47.814;11.134;2024-02-23T02:29:05;9.00;61.90
1812;DHT22;904;47.814;11.134;2024-02-23T02:31:33;9.00;62.20
1812;DHT22;904;47.814;11.134;2024-02-23T02:34:03;9.00;61.40
1812;DHT22;904;47.814;11.134;2024-02-23T02:36:31;9.00;61.80
1812;DHT22;904;47.814;11.134;2024-02-23T02:38:58;9.00;62.50
1812;DHT22;904;47.814;11.134;2024-02-23T02:41:28;9.00;63.50
1812;DHT22;904;47.814;11.134;2024-02-23T02:43:56;9.00;63.40
1812;DHT22;904;47.814;11.134;2024-02-23T02:46:23;9.10;61.30
1812;DHT22;904;47.814;11.134;2024-02-23T02:48:50;9.10;61.20
1812;DHT22;904;47.814;11.134;2024-02-23T02:51:17;9.10;61.90
1812;DHT22;904;47.814;11.134;2024-02-23T02:53:46;9.10;61.20
1812;DHT22;904;47.814;11.134;2024-02-23T02:56:13;9.10;60.90
1812;DHT22;904;47.814;11.134;2024-02-23T02:58:40;9.10;60.90
1812;DHT22;904;47.814;11.134;2024-02-23T03:01:07;9.10;61.20
1812;DHT22;904;47.814;11.134;2024-02-23T03:03:35;9.20;61.50
1812;DHT22;904;47.814;11.134;2024-02-23T03:06:02;9.20;61.10
1812;DHT22;904;47.814;11.134;2024-02-23T03:08:29;9.20;60.60
1812;DHT22;904;47.814;11.134;2024-02-23T03:10:57;9.20;61.00
1812;DHT22;904;47.814;11.134;2024-02-23T03:13:24;9.20;61.50
1812;DHT22;904;47.814;11.134;2024-02-23T03:15:51;9.20;61.00
1812;DHT22;904;47.814;11.134;2024-02-23T03:18:19;9.20;61.10
1812;DHT22;904;47.814;11.134;2024-02-23T03:20:46;9.30;61.00
1812;DHT22;904;47.814;11.134;2024-02-23T03:23:13;9.30;61.60
1812;DHT22;904;47.814;11.134;2024-02-23T03:25:41;9.30;61.80
1812;DHT22;904;47.814;11.134;2024-02-23T03:28:09;9.20;61.30
1812;DHT22;904;47.814;11.134;2024-02-23T03:30:36;9.30;61.10
1812;DHT22;904;47.814;11.134;2024-02-23T03:33:03;9.20;60.90
1812;DHT22;904;47.814;11.134;2024-02-23T03:35:30;9.30;61.50
1812;DHT22;904;47.814;11.134;2024-02-23T03:37:57;9.30;61.50
1812;DHT22;904;47.814;11.134;2024-02-23T03:40:24;9.30;61.10
1812;DHT22;904;47.814;11.134;2024-02-23T03:42:51;9.30;61.50
1812;DHT22;904;47.814;11.134;2024-02-23T03:45:20;9.30;62.00
1812;DHT22;904;47.814;11.134;2024-02-23T03:47:47;9.30;62.20
1812;DHT22;904;47.814;11.134;2024-02-23T03:50:14;9.30;63.00
1812;DHT22;904;47.814;11.134;2024-02-23T03:52:41;9.30;63.50
1812;DHT22;904;47.814;11.134;2024-02-23T03:55:09;9.30;63.90
1812;DHT22;904;47.814;11.134;2024-02-23T03:57:36;9.40;63.10
1812;DHT22;904;47.814;11.134;2024-02-23T04:00:04;9.40;63.30
1812;DHT22;904;47.814;11.134;2024-02-23T04:02:33;9.40;63.30
1812;DHT22;904;47.814;11.134;2024-02-23T04:05:00;9.40;63.80
1812;DHT22;904;47.814;11.134;2024-02-23T04:07:27;9.30;64.30
1812;DHT22;904;47.814;11.134;2024-02-23T04:09:54;9.30;64.10
1812;DHT22;904;47.814;11.134;2024-02-23T04:12:21;9.30;64.30
1812;DHT22;904;47.814;11.134;2024-02-23T04:14:48;9.20;64.30
1812;DHT22;904;47.814;11.134;2024-02-23T04:17:16;9.20;65.10
1812;DHT22;904;47.814;11.134;2024-02-23T04:19:44;9.20;65.50
1812;DHT22;904;47.814;11.134;2024-02-23T04:22:12;9.20;66.30
1812;DHT22;904;47.814;11.134;2024-02-23T04:24:39;9.20;66.60
1812;DHT22;904;47.814;11.134;2024-02-23T04:27:07;9.20;65.00
1812;DHT22;904;47.814;11.134;2024-02-23T04:29:34;9.20;64.50
1812;DHT22;904;47.814;11.134;2024-02-23T04:32:05;9.10;63.90
1812;DHT22;904;47.814;11.134;2024-02-23T04:34:33;9.10;64.10
1812;DHT22;904;47.814;11.134;2024-02-23T04:37:02;9.00;63.00
1812;DHT22;904;47.814;11.134;2024-02-23T04:39:29;8.90;63.70
1812;DHT22;904;47.814;11.134;2024-02-23T04:41:56;8.90;63.80
1812;DHT22;904;47.814;11.134;2024-02-23T04:44:23;8.90;63.50
1812;DHT22;904;47.814;11.134;2024-02-23T04:46:50;8.80;62.80
1812;DHT22;904;47.814;11.134;2024-02-23T04:49:17;8.70;63.60
1812;DHT22;904;47.814;11.134;2024-02-23T04:51:44;8.70;63.90
1812;DHT22;904;47.814;11.134;2024-02-23T04:54:13;8.60;64.20
1812;DHT22;904;47.814;11.134;2024-02-23T04:56:40;8.50;63.90
1812;DHT22;904;47.814;11.134;2024-02-23T04:59:07;8.50;64.20
1812;DHT22;904;47.814;11.134;2024-02-23T05:01:35;8.40;65.10
1812;DHT22;904;47.814;11.134;2024-02-23T05:04:03;8.40;65.60
1812;DHT22;904;47.814;11.134;2024-02-23T05:06:31;8.40;65.20
1812;DHT22;904;47.814;11.134;2024-02-23T05:08:58;8.40;63.90
1812;DHT22;904;47.814;11.134;2024-02-23T05:11:28;8.30;63.50
1812;DHT22;904;47.814;11.134;2024-02-23T05:13:55;8.30;63.50
1812;DHT22;904;47.814;11.134;2024-02-23T05:16:22;8.20;63.00
1812;DHT22;904;47.814;11.134;2024-02-23T05:18:49;8.20;62.50
1812;DHT22;904;47.814;11.134;2024-02-23T05:21:16;8.10;63.30
1812;DHT22;904;47.814;11.134;2024-02-23T05:23:43;8.00;64.30
1812;DHT22;904;47.814;11.134;2024-02-23T05:26:12;8.00;64.50
1812;DHT22;904;47.814;11.134;2024-02-23T05:28:40;7.90;65.40
1812;DHT22;904;47.814;11.134;2024-02-23T05:31:09;7.90;66.40
1812;DHT22;904;47.814;11.134;2024-02-23T05:33:37;7.90;66.70
1812;DHT22;904;47.814;11.134;2024-02-23T05:36:04;7.90;66.40
1812;DHT22;904;47.814;11.134;2024-02-23T05:38:31;7.90;66.40
1812;DHT22;904;47.814;11.134;2024-02-23T05:40:58;7.90;66.40
1812;DHT22;904;47.814;11.134;2024-02-23T05:43:26;7.90;66.40
1812;DHT22;904;47.814;11.134;2024-02-23T05:45:54;8.00;66.00
1812;DHT22;904;47.814;11.134;2024-02-23T05:48:24;8.00;65.50
1812;DHT22;904;47.814;11.134;2024-02-23T05:50:51;8.00;64.70
1812;DHT22;904;47.814;11.134;2024-02-23T05:53:18;7.90;64.80
1812;DHT22;904;47.814;11.134;2024-02-23T05:55:45;7.90;65.00
1812;DHT22;904;47.814;11.134;2024-02-23T05:58:12;8.00;64.10
1812;DHT22;904;47.814;11.134;2024-02-23T06:00:42;8.00;63.60
1812;DHT22;904;47.814;11.134;2024-02-23T06:03:10;7.90;63.70
1812;DHT22;904;47.814;11.134;2024-02-23T06:05:38;7.90;64.10
1812;DHT22;904;47.814;11.134;2024-02-23T06:08:06;7.90;63.90
1812;DHT22;904;47.814;11.134;2024-02-23T06:10:33;7.80;63.10
1812;DHT22;904;47.814;11.134;2024-02-23T06:13:00;7.80;62.60
1812;DHT22;904;47.814;11.134;2024-02-23T06:15:27;7.80;63.20
1812;DHT22;904;47.814;11.134;2024-02-23T06:17:54;7.80;63.50
1812;DHT22;904;47.814;11.134;2024-02-23T06:20:22;7.80;63.90
1812;DHT22;904;47.814;11.134;2024-02-23T06:22:49;7.80;64.00
1812;DHT22;904;47.814;11.134;2024-02-23T06:25:16;7.80;63.90
1812;DHT22;904;47.814;11.134;2024-02-23T06:27:45;7.80;63.20
1812;DHT22;904;47.814;11.134;2024-02-23T06:30:12;7.80;63.50
1812;DHT22;904;47.814;11.134;2024-02-23T06:32:39;7.80;63.60
1812;DHT22;904;47.814;11.134;2024-02-23T06:35:07;7.80;63.90
1812;DHT22;904;47.814;11.134;2024-02-23T06:37:44;7.80;63.70
1812;DHT22;904;47.814;11.134;2024-02-23T06:40:12;7.70;64.60
1812;DHT22;904;47.814;11.134;2024-02-23T06:42:39;7.80;64.80
1812;DHT22;904;47.814;11.134;2024-02-23T06:45:06;7.70;65.00
1812;DHT22;904;47.814;11.134;2024-02-23T06:47:34;7.70;65.00
1812;DHT22;904;47.814;11.134;2024-02-23T06:50:01;7.70;65.20
1812;DHT22;904;47.814;11.134;2024-02-23T06:52:29;7.70;65.40
1812;DHT22;904;47.814;11.134;2024-02-23T06:54:57;7.70;66.00
1812;DHT22;904;47.814;11.134;2024-02-23T06:57:25;7.80;66.00
1812;DHT22;904;47.814;11.134;2024-02-23T06:59:52;7.80;66.10
1812;DHT22;904;47.814;11.134;2024-02-23T07:02:19;7.80;66.40
1812;DHT22;904;47.814;11.134;2024-02-23T07:04:46;7.80;66.40
1812;DHT22;904;47.814;11.134;2024-02-23T07:07:13;7.80;66.20
1812;DHT22;904;47.814;11.134;2024-02-23T07:09:40;7.90;66.10
1812;DHT22;904;47.814;11.134;2024-02-23T07:12:08;7.90;66.30
1812;DHT22;904;47.814;11.134;2024-02-23T07:14:37;7.90;65.50
1812;DHT22;904;47.814;11.134;2024-02-23T07:17:04;7.90;65.70
1812;DHT22;904;47.814;11.134;2024-02-23T07:19:31;7.90;66.00
1812;DHT22;904;47.814;11.134;2024-02-23T07:21:58;7.90;66.40
1812;DHT22;904;47.814;11.134;2024-02-23T07:24:24;7.90;66.10
1812;DHT22;904;47.814;11.134;2024-02-23T07:26:51;7.90;66.20
1812;DHT22;904;47.814;11.134;2024-02-23T07:29:20;7.90;66.20
1812;DHT22;904;47.814;11.134;2024-02-23T07:31:47;7.90;65.30
1812;DHT22;904;47.814;11.134;2024-02-23T07:34:14;7.80;65.70
1812;DHT22;904;47.814;11.134;2024-02-23T07:36:40;7.80;65.90
1812;DHT22;904;47.814;11.134;2024-02-23T07:39:08;7.80;66.50
1812;DHT22;904;47.814;11.134;2024-02-23T07:41:36;7.80;66.60
1812;DHT22;904;47.814;11.134;2024-02-23T07:44:04;7.60;66.50
1812;DHT22;904;47.814;11.134;2024-02-23T07:46:32;7.50;67.30
1812;DHT22;904;47.814;11.134;2024-02-23T07:48:59;7.40;68.30
1812;DHT22;904;47.814;11.134;2024-02-23T07:51:26;7.50;68.40
1812;DHT22;904;47.814;11.134;2024-02-23T07:53:53;7.50;67.90
1812;DHT22;904;47.814;11.134;2024-02-23T07:56:20;7.50;68.00
1812;DHT22;904;47.814;11.134;2024-02-23T07:58:47;7.40;68.50
1812;DHT22;904;47.814;11.134;2024-02-23T08:01:14;7.50;68.00
1812;DHT22;904;47.814;11.134;2024-02-23T08:03:42;7.50;68.50
1812;DHT22;904;47.814;11.134;2024-02-23T08:06:10;7.40;69.10
1812;DHT22;904;47.814;11.134;2024-02-23T08:08:38;7.30;69.10
1812;DHT22;904;47.814;11.134;2024-02-23T08:11:05;7.20;70.00
1812;DHT22;904;47.814;11.134;2024-02-23T08:13:32;7.30;69.60
1812;DHT22;904;47.814;11.134;2024-02-23T08:15:59;7.30;69.40
1812;DHT22;904;47.814;11.134;2024-02-23T08:18:26;7.40;68.50
1812;DHT22;904;47.814;11.134;2024-02-23T08:20:54;7.30;67.90
1812;DHT22;904;47.814;11.134;2024-02-23T08:23:21;7.30;68.80
1812;DHT22;904;47.814;11.134;2024-02-23T08:25:48;7.40;68.70
1812;DHT22;904;47.814;11.134;2024-02-23T08:28:16;7.40;68.90
1812;DHT22;904;47.814;11.134;2024-02-23T08:30:43;7.40;66.00
1812;DHT22;904;47.814;11.134;2024-02-23T08:33:10;7.40;66.60
1812;DHT22;904;47.814;11.134;2024-02-23T08:35:37;7.40;66.60
1812;DHT22;904;47.814;11.134;2024-02-23T08:38:05;7.40;66.30
1812;DHT22;904;47.814;11.134;2024-02-23T08:40:32;7.40;66.00
1812;DHT22;904;47.814;11.134;2024-02-23T08:42:59;7.40;64.70
1812;DHT22;904;47.814;11.134;2024-02-23T08:45:26;7.30;64.90
1812;DHT22;904;47.814;11.134;2024-02-23T08:47:53;7.30;65.40
1812;DHT22;904;47.814;11.134;2024-02-23T08:50:20;7.20;65.60
1812;DHT22;904;47.814;11.134;2024-02-23T08:52:47;7.20;66.00
1812;DHT22;904;47.814;11.134;2024-02-23T08:55:16;7.20;65.40
1812;DHT22;904;47.814;11.134;2024-02-23T08:57:43;7.30;66.20
1812;DHT22;904;47.814;11.134;2024-02-23T09:00:11;7.30;65.90
1812;DHT22;904;47.814;11.134;2024-02-23T09:02:38;7.40;64.90
1812;DHT22;904;47.814;11.134;2024-02-23T09:05:08;7.50;63.90
1812;DHT22;904;47.814;11.134;2024-02-23T09:07:35;7.50;63.30
1812;DHT22;904;47.814;11.134;2024-02-23T09:10:02;7.50;62.30
1812;DHT22;904;47.814;11.134;2024-02-23T09:12:31;7.50;61.90
1812;DHT22;904;47.814;11.134;2024-02-23T09:14:58;7.40;61.80
1812;DHT22;904;47.814;11.134;2024-02-23T09:17:25;7.50;60.30
1812;DHT22;904;47.814;11.134;2024-02-23T09:19:52;7.40;61.30
1812;DHT22;904;47.814;11.134;2024-02-23T09:22:19;7.40;61.00
1812;DHT22;904;47.814;11.134;2024-02-23T09:24:46;7.50;59.60
1812;DHT22;904;47.814;11.134;2024-02-23T09:27:13;7.50;59.00
1812;DHT22;904;47.814;11.134;2024-02-23T09:29:42;7.50;58.80
1812;DHT22;904;47.814;11.134;2024-02-23T09:32:09;7.50;58.30
1812;DHT22;904;47.814;11.134;2024-02-23T09:34:36;7.60;58.20
1812;DHT22;904;47.814;11.134;2024-02-23T09:37:03;7.60;57.80
1812;DHT22;904;47.814;11.134;2024-02-23T09:39:30;7.60;57.30
1812;DHT22;904;47.814;11.134;2024-02-23T09:41:57;7.60;57.30
1812;DHT22;904;47.814;11.134;2024-02-23T09:44:26;7.60;58.10
1812;DHT22;904;47.814;11.134;2024-02-23T09:47:00;7.70;58.40
1812;DHT22;904;47.814;11.134;2024-02-23T09:49:34;7.70;58.30
1812;DHT22;904;47.814;11.134;2024-02-23T09:52:03;7.80;57.10
1812;DHT22;904;47.814;11.134;2024-02-23T09:54:31;7.80;58.10
1812;DHT22;904;47.814;11.134;2024-02-23T09:56:58;7.80;58.40
1812;DHT22;904;47.814;11.134;2024-02-23T09:59:25;7.90;58.40
1812;DHT22;904;47.814;11.134;2024-02-23T10:01:53;8.00;57.20
1812;DHT22;904;47.814;11.134;2024-02-23T10:04:22;8.00;57.00
1812;DHT22;904;47.814;11.134;2024-02-23T10:06:50;7.80;57.30
1812;DHT22;904;47.814;11.134;2024-02-23T10:09:17;7.80;57.70
1812;DHT22;904;47.814;11.134;2024-02-23T10:11:52;7.70;58.40
1812;DHT22;904;47.814;11.134;2024-02-23T10:14:19;7.70;59.00
1812;DHT22;904;47.814;11.134;2024-02-23T10:16:46;7.70;59.40
1812;DHT22;904;47.814;11.134;2024-02-23T10:19:14;7.70;59.60
1812;DHT22;904;47.814;11.134;2024-02-23T10:21:42;7.70;59.60
1812;DHT22;904;47.814;11.134;2024-02-23T10:24:09;7.60;59.90
1812;DHT22;904;47.814;11.134;2024-02-23T10:26:36;7.60;59.70
1812;DHT22;904;47.814;11.134;2024-02-23T10:29:03;7.60;59.90
1812;DHT22;904;47.814;11.134;2024-02-23T10:31:34;7.50;60.80
1812;DHT22;904;47.814;11.134;2024-02-23T10:34:05;7.40;61.80
1812;DHT22;904;47.814;11.134;2024-02-23T10:36:36;7.50;62.30
1812;DHT22;904;47.814;11.134;2024-02-23T10:39:06;7.40;61.80
1812;DHT22;904;47.814;11.134;2024-02-23T10:41:35;7.30;62.60
1812;DHT22;904;47.814;11.134;2024-02-23T10:44:03;7.30;63.20
1812;DHT22;904;47.814;11.134;2024-02-23T10:46:32;7.20;63.70
1812;DHT22;904;47.814;11.134;2024-02-23T10:48:59;7.20;64.40
1812;DHT22;904;47.814;11.134;2024-02-23T10:51:28;7.30;64.80
1812;DHT22;904;47.814;11.134;2024-02-23T10:53:55;7.30;64.60
1812;DHT22;904;47.814;11.134;2024-02-23T10:56:25;7.30;64.80
1812;DHT22;904;47.814;11.134;2024-02-23T10:58:53;7.40;63.90
1812;DHT22;904;47.814;11.134;2024-02-23T11:01:21;7.40;63.50
1812;DHT22;904;47.814;11.134;2024-02-23T11:03:49;7.40;64.10
1812;DHT22;904;47.814;11.134;2024-02-23T11:06:16;7.30;64.80
1812;DHT22;904;47.814;11.134;2024-02-23T11:08:46;7.30;65.30
1812;DHT22;904;47.814;11.134;2024-02-23T11:11:16;7.30;64.90
1812;DHT22;904;47.814;11.134;2024-02-23T11:13:45;7.20;65.00
1812;DHT22;904;47.814;11.134;2024-02-23T11:16:21;7.10;65.40
1812;DHT22;904;47.814;11.134;2024-02-23T11:18:48;7.10;65.60
1812;DHT22;904;47.814;11.134;2024-02-23T11:21:15;7.20;64.30
1812;DHT22;904;47.814;11.134;2024-02-23T11:23:44;7.10;64.90
1812;DHT22;904;47.814;11.134;2024-02-23T11:26:11;6.90;65.70
1812;DHT22;904;47.814;11.134;2024-02-23T11:28:42;6.90;65.20
1812;DHT22;904;47.814;11.134;2024-02-23T11:31:15;6.90;66.50
1812;DHT22;904;47.814;11.134;2024-02-23T11:33:49;6.90;66.40
1812;DHT22;904;47.814;11.134;2024-02-23T11:36:24;7.00;66.20
1812;DHT22;904;47.814;11.134;2024-02-23T11:38:56;6.90;66.60
1812;DHT22;904;47.814;11.134;2024-02-23T11:41:23;6.90;66.90
1812;DHT22;904;47.814;11.134;2024-02-23T11:43:51;7.00;66.40
1812;DHT22;904;47.814;11.134;2024-02-23T11:46:20;7.00;66.80
1812;DHT22;904;47.814;11.134;2024-02-23T11:48:48;7.00;66.70
1812;DHT22;904;47.814;11.134;2024-02-23T11:51:19;6.90;67.20
1812;DHT22;904;47.814;11.134;2024-02-23T11:53:46;6.90;67.40
1812;DHT22;904;47.814;11.134;2024-02-23T11:56:14;6.90;68.50
1812;DHT22;904;47.814;11.134;2024-02-23T11:58:41;6.80;67.20
1812;DHT22;904;47.814;11.134;2024-02-23T12:01:08;6.80;68.50
1812;DHT22;904;47.814;11.134;2024-02-23T12:03:36;6.90;68.10
1812;DHT22;904;47.814;11.134;2024-02-23T12:06:05;6.80;67.10
1812;DHT22;904;47.814;11.134;2024-02-23T12:08:33;6.80;67.90
1812;DHT22;904;47.814;11.134;2024-02-23T12:11:04;6.90;68.10
1812;DHT22;904;47.814;11.134;2024-02-23T12:13:32;7.00;67.90
1812;DHT22;904;47.814;11.134;2024-02-23T12:16:01;7.00;66.80
1812;DHT22;904;47.814;11.134;2024-02-23T12:18:29;7.00;65.40
1812;DHT22;904;47.814;11.134;2024-02-23T12:21:00;7.10;66.10
1812;DHT22;904;47.814;11.134;2024-02-23T12:23:38;7.10;65.50
1812;DHT22;904;47.814;11.134;2024-02-23T12:26:05;7.10;66.30
1812;DHT22;904;47.814;11.134;2024-02-23T12:28:32;7.10;66.20
1812;DHT22;904;47.814;11.134;2024-02-23T12:31:01;7.10;65.80
1812;DHT22;904;47.814;11.134;2024-02-23T12:33:29;7.10;64.50
1812;DHT22;904;47.814;11.134;2024-02-23T12:35:56;7.10;63.40
1812;DHT22;904;47.814;11.134;2024-02-23T12:38:26;7.10;61.90
1812;DHT22;904;47.814;11.134;2024-02-23T12:40:53;7.00;60.30
1812;DHT22;904;47.814;11.134;2024-02-23T12:43:20;7.00;59.30
1812;DHT22;904;47.814;11.134;2024-02-23T12:45:50;6.90;58.30
1812;DHT22;904;47.814;11.134;2024-02-23T12:48:17;6.90;58.90
1812;DHT22;904;47.814;11.134;2024-02-23T12:50:44;6.90;59.30
1812;DHT22;904;47.814;11.134;2024-02-23T12:53:32;6.90;58.80
1812;DHT22;904;47.814;11.134;2024-02-23T12:56:00;7.00;57.60
1812;DHT22;904;47.814;11.134;2024-02-23T12:58:27;7.00;57.70
1812;DHT22;904;47.814;11.134;2024-02-23T13:00:55;7.10;57.70
1812;DHT22;904;47.814;11.134;2024-02-23T13:03:23;7.10;57.80
1812;DHT22;904;47.814;11.134;2024-02-23T13:05:51;7.10;57.70
1812;DHT22;904;47.814;11.134;2024-02-23T13:08:18;7.00;58.30
1812;DHT22;904;47.814;11.134;2024-02-23T13:10:46;7.00;59.10
1812;DHT22;904;47.814;11.134;2024-02-23T13:13:13;7.10;58.60
1812;DHT22;904;47.814;11.134;2024-02-23T13:15:41;7.10;59.30
1812;DHT22;904;47.814;11.134;2024-02-23T13:18:08;7.10;59.10
1812;DHT22;904;47.814;11.134;2024-02-23T13:20:35;7.10;57.90
1812;DHT22;904;47.814;11.134;2024-02-23T13:23:05;7.10;58.60
1812;DHT22;904;47.814;11.134;2024-02-23T13:25:34;7.00;58.50
1812;DHT22;904;47.814;11.134;2024-02-23T13:28:03;7.00;58.60
1812;DHT22;904;47.814;11.134;2024-02-23T13:30:31;6.90;58.70
1812;DHT22;904;47.814;11.134;2024-02-23T13:32:58;6.90;58.80
1812;DHT22;904;47.814;11.134;2024-02-23T13:35:26;6.90;58.70
1812;DHT22;904;47.814;11.134;2024-02-23T13:37:53;6.90;59.00
1812;DHT22;904;47.814;11.134;2024-02-23T13:40:20;6.80;58.40
1812;DHT22;904;47.814;11.134;2024-02-23T13:42:48;6.80;59.60
1812;DHT22;904;47.814;11.134;2024-02-23T13:45:17;6.70;59.20
1812;DHT22;904;47.814;11.134;2024-02-23T13:47:56;6.70;59.90
1812;DHT22;904;47.814;11.134;2024-02-23T13:50:23;6.70;60.40
1812;DHT22;904;47.814;11.134;2024-02-23T13:52:51;6.80;60.30
1812;DHT22;904;47.814;11.134;2024-02-23T13:55:17;6.80;60.30
1812;DHT22;904;47.814;11.134;2024-02-23T13:57:46;6.80;60.90
1812;DHT22;904;47.814;11.134;2024-02-23T14:00:14;6.80;61.30
1812;DHT22;904;47.814;11.134;2024-02-23T14:02:43;6.80;60.90
1812;DHT22;904;47.814;11.134;2024-02-23T14:05:10;6.80;60.80
1812;DHT22;904;47.814;11.134;2024-02-23T14:07:42;6.80;60.10
1812;DHT22;904;47.814;11.134;2024-02-23T14:10:10;6.90;59.20
1812;DHT22;904;47.814;11.134;2024-02-23T14:12:37;6.90;59.90
1812;DHT22;904;47.814;11.134;2024-02-23T14:15:05;6.90;59.30
1812;DHT22;904;47.814;11.134;2024-02-23T14:17:32;7.00;59.40
1812;DHT22;904;47.814;11.134;2024-02-23T14:20:01;7.10;58.60
1812;DHT22;904;47.814;11.134;2024-02-23T14:22:29;7.10;58.80
1812;DHT22;904;47.814;11.134;2024-02-23T14:24:56;7.10;58.80
1812;DHT22;904;47.814;11.134;2024-02-23T14:27:27;7.00;58.80
1812;DHT22;904;47.814;11.134;2024-02-23T14:29:54;7.00;58.90
1812;DHT22;904;47.814;11.134;2024-02-23T14:32:22;7.10;58.00
1812;DHT22;904;47.814;11.134;2024-02-23T14:34:49;7.00;57.80
1812;DHT22;904;47.814;11.134;2024-02-23T14:37:18;7.00;58.40
1812;DHT22;904;47.814;11.134;2024-02-23T14:39:44;7.10;57.40
1812;DHT22;904;47.814;11.134;2024-02-23T14:42:11;7.00;56.80
1812;DHT22;904;47.814;11.134;2024-02-23T14:44:46;7.00;56.20
1812;DHT22;904;47.814;11.134;2024-02-23T14:47:13;7.00;56.90
1812;DHT22;904;47.814;11.134;2024-02-23T14:49:40;6.90;56.90
1812;DHT22;904;47.814;11.134;2024-02-23T14:52:07;6.90;56.80
1812;DHT22;904;47.814;11.134;2024-02-23T14:54:35;6.80;56.60
1812;DHT22;904;47.814;11.134;2024-02-23T14:57:02;6.80;56.70
1812;DHT22;904;47.814;11.134;2024-02-23T14:59:30;6.80;57.00
1812;DHT22;904;47.814;11.134;2024-02-23T15:02:01;6.70;57.30
1812;DHT22;904;47.814;11.134;2024-02-23T15:04:28;6.70;57.00
1812;DHT22;904;47.814;11.134;2024-02-23T15:06:55;6.70;57.80
1812;DHT22;904;47.814;11.134;2024-02-23T15:09:22;6.60;57.60
1812;DHT22;904;47.814;11.134;2024-02-23T15:11:50;6.60;57.70
1812;DHT22;904;47.814;11.134;2024-02-23T15:14:18;6.60;57.90
1812;DHT22;904;47.814;11.134;2024-02-23T15:16:45;6.50;57.90
1812;DHT22;904;47.814;11.134;2024-02-23T15:19:12;6.50;58.10
1812;DHT22;904;47.814;11.134;2024-02-23T15:21:39;6.50;58.30
1812;DHT22;904;47.814;11.134;2024-02-23T15:24:07;6.40;58.30
1812;DHT22;904;47.814;11.134;2024-02-23T15:26:34;6.40;58.90
1812;DHT22;904;47.814;11.134;2024-02-23T15:29:02;6.40;59.20
1812;DHT22;904;47.814;11.134;2024-02-23T15:31:30;6.40;59.00
1812;DHT22;904;47.814;11.134;2024-02-23T15:33:57;6.40;59.10
1812;DHT22;904;47.814;11.134;2024-02-23T15:36:25;6.40;59.60
1812;DHT22;904;47.814;11.134;2024-02-23T15:38:54;6.30;59.80
1812;DHT22;904;47.814;11.134;2024-02-23T15:41:28;6.40;60.00
1812;DHT22;904;47.814;11.134;2024-02-23T15:43:55;6.40;60.00
1812;DHT22;904;47.814;11.134;2024-02-23T15:46:23;6.40;60.60
1812;DHT22;904;47.814;11.134;2024-02-23T15:48:51;6.30;59.80
1812;DHT22;904;47.814;11.134;2024-02-23T15:51:18;6.30;59.80
1812;DHT22;904;47.814;11.134;2024-02-23T15:53:49;6.30;59.80
1812;DHT22;904;47.814;11.134;2024-02-23T15:56:16;6.20;60.30
1812;DHT22;904;47.814;11.134;2024-02-23T15:58:43;6.10;61.20
1812;DHT22;904;47.814;11.134;2024-02-23T16:01:11;6.10;61.10
1812;DHT22;904;47.814;11.134;2024-02-23T16:03:39;6.10;60.40
1812;DHT22;904;47.814;11.134;2024-02-23T16:06:08;6.10;60.50
1812;DHT22;904;47.814;11.134;2024-02-23T16:08:39;6.00;60.30
1812;DHT22;904;47.814;11.134;2024-02-23T16:11:08;6.00;61.30
1812;DHT22;904;47.814;11.134;2024-02-23T16:13:36;6.00;61.60
1812;DHT22;904;47.814;11.134;2024-02-23T16:16:04;6.00;61.40
1812;DHT22;904;47.814;11.134;2024-02-23T16:18:32;6.10;60.70
1812;DHT22;904;47.814;11.134;2024-02-23T16:21:00;6.00;60.30